Flight Track Log - Related Links

Times and Time Zones

All times are in EST time to prevent confusion due to time zone crossing. See the DAL2125 flight status page for this flight to view local times or setup timezone preferences in your user account.

Time Position Orientation Groundspeed Altitude Reporting Facility
EST Latitude Longitude Course Direction KTS MPH feet Rate Location/Type
12:36PM 39.1833 -76.7167 210° Southwest 176 203 1,500  Level Potomac TRACON
12:37PM 39.1833 -76.8000 270° West 257 296 4,400 3,421 Climbing Potomac TRACON
12:38PM 39.2000 -76.8833 284° West 263 303 8,000 3,895 Climbing Potomac TRACON
12:39PM 39.2000 -77.0813 270° West  Level FlightAware Approximate
12:39PM 39.2167 -76.9667 284° West 264 304 11,800  Level Potomac TRACON
12:40PM 39.1531 -77.1902 211° Southwest  Level FlightAware Approximate
12:40PM 39.2000 -77.0833 260° West 319 367 13,000  Level Potomac TRACON
12:41PM 39.0592 -77.2632 211° Southwest  Level FlightAware Approximate
12:41PM 39.1167 -77.1667 218° Southwest 372 428 15,000  Level Potomac TRACON
12:42PM 38.9679 -77.3408 210° Southwest  Level FlightAware Approximate
12:42PM 39.0500 -77.2500 224° Southwest 346 398 18,300  Level Potomac TRACON
12:44PM 38.9022 -77.3708 212° Southwest 392 451 20,600 1,698 Climbing Washington Center
12:45PM 38.8094 -77.4486 213° Southwest 402 463 22,800 1,678 Climbing Washington Center
12:46PM 38.7311 -77.5211 216° Southwest 402 463 23,900 605 Climbing Washington Center
12:47PM 38.6444 -77.6011 216° Southwest 402 463 24,000 50 Climbing Washington Center
12:48PM 38.5575 -77.6839 217° Southwest 396 456 24,000  Level Washington Center
12:49PM 38.4789 -77.7692 220° Southwest 389 448 24,000  Level Washington Center
12:50PM 38.4164 -77.8758 233° Southwest 377 434 24,000  Level Washington Center
12:51PM 38.3517 -77.9825 232° Southwest 377 434 24,000  Level Washington Center
12:52PM 38.2914 -78.0836 233° Southwest 382 440 24,000  Level Washington Center
12:53PM 38.2264 -78.1900 232° Southwest 382 440 24,000  Level Washington Center
12:54PM 38.1614 -78.2986 233° Southwest 387 445 24,000  Level Washington Center
12:55PM 38.0967 -78.3992 231° Southwest 387 445 24,000  Level Washington Center
12:56PM 38.0336 -78.5022 232° Southwest 387 445 24,000  Level Washington Center
12:57PM 37.9728 -78.6028 233° Southwest 382 440 24,000  Level Washington Center
12:58PM 37.9075 -78.7081 232° Southwest 382 440 24,000  Level Washington Center
12:59PM 37.8422 -78.8131 232° Southwest 382 440 24,000  Level Washington Center
01:00PM 37.7789 -78.9128 231° Southwest 382 440 24,000  Level Washington Center
01:01PM 37.7047 -79.0278 231° Southwest 382 440 24,000  Level Washington Center
01:02PM 37.6414 -79.1297 232° Southwest 382 440 24,000  Level Washington Center
01:03PM 37.5736 -79.2339 231° Southwest 382 440 24,000  Level Washington Center
01:04PM 37.5144 -79.3281 232° Southwest 388 447 24,000  Level Washington Center
01:05PM 37.4378 -79.4394 229° Southwest 388 447 24,000  Level Washington Center
01:06PM 37.3717 -79.5486 233° Southwest 394 453 24,000  Level Washington Center
01:07PM 37.3036 -79.6547 231° Southwest 394 453 24,000  Level Washington Center
01:08PM 37.2372 -79.7581 231° Southwest 394 453 24,000  Level Washington Center
01:09PM 37.1775 -79.8539 232° Southwest 394 453 24,000  Level Washington Center
01:10PM 37.1114 -79.9569 231° Southwest 394 453 24,000  Level Washington Center
01:11PM 36.9989 -80.1275 230° Southwest 391 450 24,000  Level Atlanta Center
01:12PM 36.9292 -80.2294 229° Southwest 396 456 24,000  Level Atlanta Center
01:13PM 36.8697 -80.3258 232° Southwest 396 456 24,000  Level Atlanta Center
01:14PM 36.7997 -80.4275 229° Southwest 396 456 24,000  Level Atlanta Center
01:15PM 36.7319 -80.5317 231° Southwest 391 450 24,000  Level Atlanta Center
01:16PM 36.6639 -80.6331 230° Southwest 391 450 24,000  Level Atlanta Center
01:17PM 36.5978 -80.7367 232° Southwest 386 444 24,000  Level Atlanta Center
01:18PM 36.5297 -80.8403 231° Southwest 386 444 24,000  Level Atlanta Center
01:19PM 36.4594 -80.9439 230° Southwest 386 444 24,000  Level Atlanta Center
01:20PM 36.3908 -81.0469 230° Southwest 386 444 24,000  Level Atlanta Center
01:21PM 36.3206 -81.1528 231° Southwest 386 444 24,000  Level Atlanta Center
01:22PM 36.2542 -81.2556 231° Southwest 386 444 24,000  Level Atlanta Center
01:23PM 36.1833 -81.3583 230° Southwest 386 444 24,000  Level Atlanta Center
01:24PM 36.1125 -81.4583 229° Southwest 386 444 24,000  Level Atlanta Center
01:25PM 36.0436 -81.5631 231° Southwest 386 444 24,000  Level Atlanta Center
01:26PM 35.9747 -81.6628 230° Southwest 386 444 24,000  Level Atlanta Center
01:27PM 35.9058 -81.7672 231° Southwest 386 444 24,000  Level Atlanta Center
01:28PM 35.8347 -81.8692 229° Southwest 386 444 24,000  Level Atlanta Center
01:29PM 35.7592 -81.9683 227° Southwest 392 451 24,000  Level Atlanta Center
01:30PM 35.6836 -82.0625 225° Southwest 392 451 24,000  Level Atlanta Center
01:31PM 35.6036 -82.1536 223° Southwest 397 457 24,000  Level Atlanta Center
01:32PM 35.5217 -82.2475 223° Southwest 402 463 24,000  Level Atlanta Center
01:33PM 35.4414 -82.3386 223° Southwest 402 463 24,000  Level Atlanta Center
01:34PM 35.3675 -82.4267 224° Southwest 390 449 24,000  Level Atlanta Center
01:35PM 35.2914 -82.5094 222° Southwest 384 442 24,000  Level Atlanta Center
01:36PM 35.2153 -82.5972 223° Southwest 379 436 24,000  Level Atlanta Center
01:37PM 35.1392 -82.6825 223° Southwest 372 428 24,000  Level Atlanta Center
01:38PM 35.0525 -82.7728 220° Southwest 379 436 24,000  Level Atlanta Center
01:39PM 34.9761 -82.8625 224° Southwest 379 436 24,000  Level Atlanta Center
01:40PM 34.8933 -82.9472 220° Southwest 384 442 24,000  Level Atlanta Center
01:41PM 34.8086 -83.0394 222° Southwest 402 463 24,000  Level Atlanta Center
01:42PM 34.7383 -83.1211 224° Southwest 402 463 24,000  Level Atlanta Center
01:43PM 34.6556 -83.2131 222° Southwest 407 468 24,000  Level Atlanta Center
01:44PM 34.5728 -83.3072 223° Southwest 407 468 24,000  Level Atlanta Center
01:45PM 34.4939 -83.3936 222° Southwest 397 457 24,000 -150 Level Atlanta Center
01:46PM 34.4169 -83.4797 223° Southwest 385 443 23,700 -950 Descending Atlanta Center
01:47PM 34.3319 -83.5733 222° Southwest 385 443 22,100 -2,200 Descending Atlanta Center
01:48PM 34.2569 -83.6567 223° Southwest 374 430 19,300 -2,800 Descending Atlanta Center
01:49PM 34.1842 -83.7350 222° Southwest 364 419 16,500 -2,600 Descending Atlanta Center
01:50PM 34.1133 -83.8181 224° Southwest 364 419 14,100 -1,538 Descending Atlanta Center
01:51PM 34.0500 -83.8833 221° Southwest 356 410 13,500 -1,081 Descending Atlanta TRACON
01:52PM 33.9833 -83.9667 226° Southwest 332 382 12,100 -789 Descending Atlanta TRACON
01:53PM 33.9000 -84.0167 206° Southwest 345 397 12,000 -48 Descending Atlanta TRACON
01:54PM 33.8000 -84.0833 209° Southwest 347 399 12,000  Level Atlanta TRACON
01:55PM 33.7333 -84.1500 220° Southwest 345 397 12,000  Level Atlanta TRACON
01:56PM 33.7333 -84.2500 270° West 268 308 12,000 -238 Level Atlanta TRACON
01:57PM 33.7333 -84.3500 270° West 263 303 11,500 -1,429 Descending Atlanta TRACON
01:58PM 33.7333 -84.4333 270° West 274 315 9,000 -2,450 Descending Atlanta TRACON
01:59PM 33.7333 -84.5167 270° West 271 312 6,600 -1,850 Descending Atlanta TRACON
02:00PM 33.7333 -84.6167 270° West 272 313 5,300 -800 Descending Atlanta TRACON
02:01PM 33.7333 -84.7000 270° West 266 306 5,000 -150 Descending Atlanta TRACON
02:02PM 33.7333 -84.7833 270° West 253 291 5,000  Level Atlanta TRACON
02:03PM 33.7333 -84.8667 270° West 226 260 5,000  Level Atlanta TRACON
02:04PM 33.6667 -84.8667 180° South 232 267 5,000  Level Atlanta TRACON
02:05PM 33.6500 -84.8167 112° Southeast 193 222 5,000 -175 Level Atlanta TRACON
02:08PM 33.6500 -84.6333 103° East 189 217 4,300 -425 Descending Atlanta TRACON
02:09PM 33.6500 -84.5667 90° East 168 193 3,300 -950 Descending Atlanta TRACON
02:10PM 33.6500 -84.5167 90° East 143 165 2,400 -850 Descending Atlanta TRACON
02:11PM 33.6500 -84.4667 90° East 135 155 1,600 -800 Descending Atlanta TRACON
02:14PM 33.6367 -84.4279 103° East  Level Estimated

Login

Don't have an account? Register now (free) for customized features, flight alerts, and more!